メインページ
METAR-TAF:

METAR-TAF

空港 :

トンコンティン国際空港

テグシガルパ, ホンジュラス

緯度: 14-03N, 経度: 087-13W, 海抜: 994m

現時点の気象観測

当レポートは25分前の06:00(UTC)に作成
無風
気温 19°C
湿度 94%
気圧 1019 hPa
視程10km以上
高度2800ftの千切れ雲あり
高度9000ftの千切れ雲あり

METAR: MHTG 200600Z 00000KT 9999 BKN028 BKN090 19/18 Q1019 A3009 BECMG 8000 VCSH

時間: 00:25 (06:25 UTC)

予報

当レポートは1時間55分前の04:30(UTC)に作成
予報は20日の 06時(UTC)から 21日の 06時(UTC)まで有効
の風 4kt
視程10km以上
高度2400ftの千切れ雲あり
20日の 12時(UTC)から 20日の 14時(UTC)まで徐々に
高度2800ftの雲は散在している, 塔状積雲.
20日の 16時(UTC)から 20日の 18時(UTC)まで徐々に
視程: 8000m
高度2800ftの千切れ雲あり, 塔状積雲.
近辺でにわか雨
20日の 20時(UTC)から 21日の 02時(UTC)まで一時的に
の風 kt
視程: 6000m
高度2800ftの雲は散在している, 積乱雲.
高度8000ftの雲は散在している
激しい雷雨, 小雨
21日の 02時(UTC)から 21日の 04時(UTC)まで徐々に
北/北東の風 4kt
視程: 5000m
高度2600ftの雲は散在している, 積乱雲.
高度8000ftの千切れ雲あり

TAF: MHTG 200430Z 2006/2106 01004KT 9999 BKN024 TX26/2019Z TN17/2012Z BECMG 2012/2014 SCT028TCU BECMG 2016/2018 8000 VCSH BKN028TCU TEMPO 2020/2102 00000KT 6000 -TSRA SCT028CB SCT080 BECMG 2102/2104 03004KT 5000 RA SCT026CB BKN080

4,000以上の空港の気象観測と天気予報(METAR報とTAF報)

利用可能な観測所は地図上に黄色い丸と赤い丸で示す。

丸の上にカーソルを重ねると観測所名を参照できる。

次にクリックすると気象観測と天気予報を参照できる。

マップの切り替え:黒色「×」印の緑ボタンをクリックして拡大、「-」印の緑ボタンをクリックして縮小、緑色の三角印をクリックして隣りの地図に切り替え


METAR-TAF: